sensor_id;sensor_type;location;lat;lon;timestamp;pressure;altitude;pressure_sealevel;temperature;humidity
61528;BME280;47395;42.032;-8.634;2023-04-25T00:00:43;101213.75;;;16.04;88.31
61528;BME280;47395;42.032;-8.634;2023-04-25T00:02:44;101214.19;;;15.96;88.50
61528;BME280;47395;42.032;-8.634;2023-04-25T00:04:46;101216.28;;;15.91;88.96
61528;BME280;47395;42.032;-8.634;2023-04-25T00:06:49;101227.31;;;15.85;89.07
61528;BME280;47395;42.032;-8.634;2023-04-25T00:08:50;101230.78;;;15.85;88.93
61528;BME280;47395;42.032;-8.634;2023-04-25T00:10:51;101241.53;;;15.84;88.88
61528;BME280;47395;42.032;-8.634;2023-04-25T00:12:52;101246.00;;;15.83;89.16
61528;BME280;47395;42.032;-8.634;2023-04-25T00:14:53;101247.03;;;15.81;89.07
61528;BME280;47395;42.032;-8.634;2023-04-25T00:16:53;101242.78;;;15.78;88.52
61528;BME280;47395;42.032;-8.634;2023-04-25T00:18:55;101249.13;;;15.75;88.77
61528;BME280;47395;42.032;-8.634;2023-04-25T00:20:56;101260.41;;;15.79;88.84
61528;BME280;47395;42.032;-8.634;2023-04-25T00:22:57;101253.88;;;15.85;88.69
61528;BME280;47395;42.032;-8.634;2023-04-25T00:24:58;101255.66;;;15.84;88.58
61528;BME280;47395;42.032;-8.634;2023-04-25T00:27:00;101244.19;;;15.84;88.54
61528;BME280;47395;42.032;-8.634;2023-04-25T00:29:01;101236.13;;;15.85;88.64
61528;BME280;47395;42.032;-8.634;2023-04-25T00:31:03;101236.03;;;15.87;88.46
61528;BME280;47395;42.032;-8.634;2023-04-25T00:33:04;101235.66;;;15.78;87.99
61528;BME280;47395;42.032;-8.634;2023-04-25T00:35:05;101235.75;;;15.77;88.34
61528;BME280;47395;42.032;-8.634;2023-04-25T00:37:06;101237.00;;;15.71;88.20
61528;BME280;47395;42.032;-8.634;2023-04-25T00:39:07;101228.66;;;15.63;88.38
61528;BME280;47395;42.032;-8.634;2023-04-25T00:41:08;101220.41;;;15.53;88.41
61528;BME280;47395;42.032;-8.634;2023-04-25T00:43:09;101223.81;;;15.40;88.84
61528;BME280;47395;42.032;-8.634;2023-04-25T00:45:13;101239.34;;;15.32;89.48
61528;BME280;47395;42.032;-8.634;2023-04-25T00:47:15;101229.38;;;15.21;90.06
61528;BME280;47395;42.032;-8.634;2023-04-25T00:49:16;101224.53;;;15.13;90.47
61528;BME280;47395;42.032;-8.634;2023-04-25T00:51:20;101219.53;;;15.09;91.16
61528;BME280;47395;42.032;-8.634;2023-04-25T00:53:22;101210.63;;;15.10;91.18
61528;BME280;47395;42.032;-8.634;2023-04-25T00:55:23;101211.56;;;15.09;91.19
61528;BME280;47395;42.032;-8.634;2023-04-25T00:57:25;101209.00;;;15.07;91.43
61528;BME280;47395;42.032;-8.634;2023-04-25T00:59:26;101207.97;;;15.10;91.90
61528;BME280;47395;42.032;-8.634;2023-04-25T01:01:28;101205.31;;;15.10;91.70
61528;BME280;47395;42.032;-8.634;2023-04-25T01:03:32;101200.19;;;15.07;91.61
61528;BME280;47395;42.032;-8.634;2023-04-25T01:05:35;101204.63;;;15.06;91.62
61528;BME280;47395;42.032;-8.634;2023-04-25T01:07:36;101206.34;;;15.07;91.74
61528;BME280;47395;42.032;-8.634;2023-04-25T01:09:37;101210.63;;;15.10;91.86
61528;BME280;47395;42.032;-8.634;2023-04-25T01:11:38;101203.41;;;15.12;91.91
61528;BME280;47395;42.032;-8.634;2023-04-25T01:13:40;101207.56;;;15.16;91.80
61528;BME280;47395;42.032;-8.634;2023-04-25T01:15:41;101194.88;;;15.21;91.53
61528;BME280;47395;42.032;-8.634;2023-04-25T01:17:42;101199.13;;;15.24;91.54
61528;BME280;47395;42.032;-8.634;2023-04-25T01:19:44;101205.03;;;15.29;91.13
61528;BME280;47395;42.032;-8.634;2023-04-25T01:21:48;101199.81;;;15.27;90.79
61528;BME280;47395;42.032;-8.634;2023-04-25T01:23:49;101203.13;;;15.31;90.67
61528;BME280;47395;42.032;-8.634;2023-04-25T01:25:50;101205.78;;;15.31;90.44
61528;BME280;47395;42.032;-8.634;2023-04-25T01:27:52;101201.25;;;15.33;90.28
61528;BME280;47395;42.032;-8.634;2023-04-25T01:29:54;101202.00;;;15.35;90.13
61528;BME280;47395;42.032;-8.634;2023-04-25T01:31:56;101195.06;;;15.33;90.14
61528;BME280;47395;42.032;-8.634;2023-04-25T01:33:59;101192.34;;;15.34;89.97
61528;BME280;47395;42.032;-8.634;2023-04-25T01:35:59;101189.03;;;15.31;89.81
61528;BME280;47395;42.032;-8.634;2023-04-25T01:38:00;101193.38;;;15.32;90.06
61528;BME280;47395;42.032;-8.634;2023-04-25T01:40:02;101192.81;;;15.26;90.03
61528;BME280;47395;42.032;-8.634;2023-04-25T01:42:03;101189.47;;;15.23;90.00
61528;BME280;47395;42.032;-8.634;2023-04-25T01:44:05;101186.06;;;15.21;90.08
61528;BME280;47395;42.032;-8.634;2023-04-25T01:46:06;101191.38;;;15.21;89.79
61528;BME280;47395;42.032;-8.634;2023-04-25T01:48:12;101182.66;;;15.19;89.73
61528;BME280;47395;42.032;-8.634;2023-04-25T01:50:13;101181.34;;;15.11;89.82
61528;BME280;47395;42.032;-8.634;2023-04-25T01:52:14;101181.78;;;15.04;89.91
61528;BME280;47395;42.032;-8.634;2023-04-25T01:54:15;101175.91;;;14.98;90.26
61528;BME280;47395;42.032;-8.634;2023-04-25T01:56:18;101174.59;;;14.91;90.30
61528;BME280;47395;42.032;-8.634;2023-04-25T01:58:18;101175.88;;;14.84;90.52
61528;BME280;47395;42.032;-8.634;2023-04-25T02:00:31;101180.53;;;14.80;90.88
61528;BME280;47395;42.032;-8.634;2023-04-25T02:02:32;101171.09;;;14.74;91.38
61528;BME280;47395;42.032;-8.634;2023-04-25T02:04:34;101169.41;;;14.73;91.50
61528;BME280;47395;42.032;-8.634;2023-04-25T02:06:35;101175.44;;;14.75;91.51
61528;BME280;47395;42.032;-8.634;2023-04-25T02:08:36;101167.50;;;14.75;91.51
61528;BME280;47395;42.032;-8.634;2023-04-25T02:10:38;101178.09;;;14.75;91.51
61528;BME280;47395;42.032;-8.634;2023-04-25T02:13:08;101180.75;;;14.75;91.54
61528;BME280;47395;42.032;-8.634;2023-04-25T02:15:22;101177.97;;;14.79;91.51
61528;BME280;47395;42.032;-8.634;2023-04-25T02:17:26;101176.16;;;14.79;91.28
61528;BME280;47395;42.032;-8.634;2023-04-25T02:19:27;101173.63;;;14.78;91.56
61528;BME280;47395;42.032;-8.634;2023-04-25T02:21:28;101180.00;;;14.73;91.26
61528;BME280;47395;42.032;-8.634;2023-04-25T02:23:29;101181.97;;;14.70;91.33
61528;BME280;47395;42.032;-8.634;2023-04-25T02:25:30;101182.25;;;14.65;91.11
61528;BME280;47395;42.032;-8.634;2023-04-25T02:27:32;101187.72;;;14.62;91.23
61528;BME280;47395;42.032;-8.634;2023-04-25T02:29:32;101184.41;;;14.58;91.30
61528;BME280;47395;42.032;-8.634;2023-04-25T02:31:33;101186.50;;;14.53;91.30
61528;BME280;47395;42.032;-8.634;2023-04-25T02:33:34;101184.97;;;14.49;91.93
61528;BME280;47395;42.032;-8.634;2023-04-25T02:35:35;101190.50;;;14.44;91.95
61528;BME280;47395;42.032;-8.634;2023-04-25T02:37:39;101195.91;;;14.43;92.23
61528;BME280;47395;42.032;-8.634;2023-04-25T02:39:40;101189.94;;;14.39;92.38
61528;BME280;47395;42.032;-8.634;2023-04-25T02:41:41;101192.00;;;14.34;92.35
61528;BME280;47395;42.032;-8.634;2023-04-25T02:43:42;101195.47;;;14.34;92.87
61528;BME280;47395;42.032;-8.634;2023-04-25T02:45:43;101197.28;;;14.34;92.99
61528;BME280;47395;42.032;-8.634;2023-04-25T02:47:44;101190.47;;;14.30;93.16
61528;BME280;47395;42.032;-8.634;2023-04-25T02:49:45;101198.75;;;14.23;93.95
61528;BME280;47395;42.032;-8.634;2023-04-25T02:51:46;101195.69;;;14.31;93.94
61528;BME280;47395;42.032;-8.634;2023-04-25T02:53:47;101198.81;;;14.38;94.21
61528;BME280;47395;42.032;-8.634;2023-04-25T02:55:48;101197.97;;;14.38;94.16
61528;BME280;47395;42.032;-8.634;2023-04-25T02:57:49;101204.97;;;14.39;94.79
61528;BME280;47395;42.032;-8.634;2023-04-25T03:00:00;101203.50;;;14.49;94.47
61528;BME280;47395;42.032;-8.634;2023-04-25T03:02:01;101200.25;;;14.60;94.59
61528;BME280;47395;42.032;-8.634;2023-04-25T03:04:05;101205.00;;;14.69;94.09
61528;BME280;47395;42.032;-8.634;2023-04-25T03:06:06;101199.28;;;14.77;93.67
61528;BME280;47395;42.032;-8.634;2023-04-25T03:08:07;101193.31;;;14.88;93.04
61528;BME280;47395;42.032;-8.634;2023-04-25T03:10:11;101195.03;;;14.89;92.75
61528;BME280;47395;42.032;-8.634;2023-04-25T03:12:13;101183.94;;;14.97;92.49
61528;BME280;47395;42.032;-8.634;2023-04-25T03:14:13;101166.97;;;14.99;92.55
61528;BME280;47395;42.032;-8.634;2023-04-25T03:16:14;101172.69;;;15.08;92.49
61528;BME280;47395;42.032;-8.634;2023-04-25T03:18:16;101173.28;;;15.13;92.26
61528;BME280;47395;42.032;-8.634;2023-04-25T03:20:17;101173.06;;;15.16;92.29
61528;BME280;47395;42.032;-8.634;2023-04-25T03:22:18;101161.41;;;15.19;92.44
61528;BME280;47395;42.032;-8.634;2023-04-25T03:24:18;101160.38;;;15.21;92.56
61528;BME280;47395;42.032;-8.634;2023-04-25T03:26:19;101157.72;;;15.21;92.23
61528;BME280;47395;42.032;-8.634;2023-04-25T03:28:21;101160.19;;;15.24;91.65
61528;BME280;47395;42.032;-8.634;2023-04-25T03:30:22;101161.78;;;15.27;91.37
61528;BME280;47395;42.032;-8.634;2023-04-25T03:32:23;101163.63;;;15.26;91.02
61528;BME280;47395;42.032;-8.634;2023-04-25T03:34:24;101164.28;;;15.30;90.85
61528;BME280;47395;42.032;-8.634;2023-04-25T03:36:26;101169.50;;;15.32;90.29
61528;BME280;47395;42.032;-8.634;2023-04-25T03:38:27;101171.66;;;15.25;90.25
61528;BME280;47395;42.032;-8.634;2023-04-25T03:40:28;101174.59;;;15.20;90.50
61528;BME280;47395;42.032;-8.634;2023-04-25T03:42:47;101179.81;;;15.22;90.27
61528;BME280;47395;42.032;-8.634;2023-04-25T03:44:49;101186.63;;;15.26;90.30
61528;BME280;47395;42.032;-8.634;2023-04-25T03:46:50;101183.03;;;15.27;90.02
61528;BME280;47395;42.032;-8.634;2023-04-25T03:48:51;101192.50;;;15.31;89.92
61528;BME280;47395;42.032;-8.634;2023-04-25T03:50:56;101192.69;;;15.28;89.81
61528;BME280;47395;42.032;-8.634;2023-04-25T03:52:57;101198.22;;;15.25;89.65
61528;BME280;47395;42.032;-8.634;2023-04-25T03:55:01;101200.47;;;15.31;89.98
61528;BME280;47395;42.032;-8.634;2023-04-25T03:57:02;101205.31;;;15.39;89.57
61528;BME280;47395;42.032;-8.634;2023-04-25T03:59:06;101210.53;;;15.40;89.07
61528;BME280;47395;42.032;-8.634;2023-04-25T04:01:09;101202.47;;;15.42;88.49
61528;BME280;47395;42.032;-8.634;2023-04-25T04:05:27;101199.16;;;15.38;88.93
61528;BME280;47395;42.032;-8.634;2023-04-25T04:07:30;101198.78;;;15.45;88.85
61528;BME280;47395;42.032;-8.634;2023-04-25T04:09:34;101197.63;;;15.49;88.66
61528;BME280;47395;42.032;-8.634;2023-04-25T04:11:39;101192.41;;;15.47;88.47
61528;BME280;47395;42.032;-8.634;2023-04-25T04:13:40;101187.19;;;15.46;88.58
61528;BME280;47395;42.032;-8.634;2023-04-25T04:15:42;101189.19;;;15.42;88.90
61528;BME280;47395;42.032;-8.634;2023-04-25T04:17:43;101184.06;;;15.39;88.85
61528;BME280;47395;42.032;-8.634;2023-04-25T04:19:44;101187.97;;;15.33;88.95
61528;BME280;47395;42.032;-8.634;2023-04-25T04:21:49;101186.38;;;15.31;89.48
61528;BME280;47395;42.032;-8.634;2023-04-25T04:23:50;101190.63;;;15.33;89.74
61528;BME280;47395;42.032;-8.634;2023-04-25T04:25:52;101191.00;;;15.27;89.50
61528;BME280;47395;42.032;-8.634;2023-04-25T04:28:03;101181.41;;;15.24;89.40
61528;BME280;47395;42.032;-8.634;2023-04-25T04:30:31;101181.16;;;15.29;89.13
61528;BME280;47395;42.032;-8.634;2023-04-25T04:32:37;101173.56;;;15.37;88.80
61528;BME280;47395;42.032;-8.634;2023-04-25T04:34:39;101171.19;;;15.33;88.61
61528;BME280;47395;42.032;-8.634;2023-04-25T04:36:42;101171.19;;;15.33;88.60
61528;BME280;47395;42.032;-8.634;2023-04-25T04:38:44;101172.97;;;15.18;88.88
61528;BME280;47395;42.032;-8.634;2023-04-25T04:40:54;101178.28;;;15.18;88.87
61528;BME280;47395;42.032;-8.634;2023-04-25T04:43:06;101186.63;;;15.11;89.35
61528;BME280;47395;42.032;-8.634;2023-04-25T04:45:38;101191.47;;;15.05;89.89
61528;BME280;47395;42.032;-8.634;2023-04-25T04:47:46;101182.00;;;15.15;90.05
61528;BME280;47395;42.032;-8.634;2023-04-25T04:50:27;101180.94;;;15.18;89.81
61528;BME280;47395;42.032;-8.634;2023-04-25T04:52:46;101185.88;;;15.24;89.76
61528;BME280;47395;42.032;-8.634;2023-04-25T04:55:12;101188.91;;;15.32;89.58
61528;BME280;47395;42.032;-8.634;2023-04-25T04:57:30;101187.50;;;15.41;89.52
61528;BME280;47395;42.032;-8.634;2023-04-25T04:59:45;101188.16;;;15.45;89.55
61528;BME280;47395;42.032;-8.634;2023-04-25T05:02:12;101185.00;;;15.52;89.22
61528;BME280;47395;42.032;-8.634;2023-04-25T05:04:33;101189.41;;;15.53;89.18
61528;BME280;47395;42.032;-8.634;2023-04-25T05:06:46;101184.09;;;15.53;88.93
61528;BME280;47395;42.032;-8.634;2023-04-25T05:09:06;101180.66;;;15.51;88.68
61528;BME280;47395;42.032;-8.634;2023-04-25T05:11:39;101178.97;;;15.50;88.53
61528;BME280;47395;42.032;-8.634;2023-04-25T05:14:06;101180.00;;;15.48;88.68
61528;BME280;47395;42.032;-8.634;2023-04-25T05:16:37;101173.81;;;15.47;88.66
61528;BME280;47395;42.032;-8.634;2023-04-25T05:18:56;101173.09;;;15.45;88.82
61528;BME280;47395;42.032;-8.634;2023-04-25T05:21:26;101178.19;;;15.48;88.89
61528;BME280;47395;42.032;-8.634;2023-04-25T05:23:54;101189.56;;;15.50;88.79
61528;BME280;47395;42.032;-8.634;2023-04-25T05:26:16;101184.19;;;15.52;88.60
61528;BME280;47395;42.032;-8.634;2023-04-25T05:28:40;101184.81;;;15.56;88.47
61528;BME280;47395;42.032;-8.634;2023-04-25T05:31:04;101188.91;;;15.61;88.69
61528;BME280;47395;42.032;-8.634;2023-04-25T05:33:16;101188.50;;;15.68;88.21
61528;BME280;47395;42.032;-8.634;2023-04-25T05:35:18;101194.50;;;15.71;88.42
61528;BME280;47395;42.032;-8.634;2023-04-25T05:37:21;101198.75;;;15.74;88.28
61528;BME280;47395;42.032;-8.634;2023-04-25T05:39:32;101201.31;;;15.75;88.24
61528;BME280;47395;42.032;-8.634;2023-04-25T05:41:49;101198.00;;;15.72;87.84
61528;BME280;47395;42.032;-8.634;2023-04-25T05:44:16;101199.59;;;15.74;88.04
61528;BME280;47395;42.032;-8.634;2023-04-25T05:46:30;101199.41;;;15.77;88.21
61528;BME280;47395;42.032;-8.634;2023-04-25T05:48:45;101202.72;;;15.81;88.08
61528;BME280;47395;42.032;-8.634;2023-04-25T05:51:05;101209.53;;;15.85;87.87
61528;BME280;47395;42.032;-8.634;2023-04-25T05:53:26;101205.19;;;15.84;87.90
61528;BME280;47395;42.032;-8.634;2023-04-25T05:55:33;101208.63;;;15.86;87.61
61528;BME280;47395;42.032;-8.634;2023-04-25T05:57:36;101207.09;;;15.82;87.83
61528;BME280;47395;42.032;-8.634;2023-04-25T05:59:38;101207.44;;;15.90;87.58
61528;BME280;47395;42.032;-8.634;2023-04-25T06:01:39;101198.81;;;15.87;87.35
61528;BME280;47395;42.032;-8.634;2023-04-25T06:03:41;101203.94;;;15.90;87.13
61528;BME280;47395;42.032;-8.634;2023-04-25T06:05:44;101201.38;;;15.88;87.42
61528;BME280;47395;42.032;-8.634;2023-04-25T06:07:45;101205.84;;;15.88;87.28
61528;BME280;47395;42.032;-8.634;2023-04-25T06:09:46;101207.34;;;15.92;87.47
61528;BME280;47395;42.032;-8.634;2023-04-25T06:11:47;101213.06;;;16.00;87.14
61528;BME280;47395;42.032;-8.634;2023-04-25T06:13:48;101204.91;;;16.03;87.01
61528;BME280;47395;42.032;-8.634;2023-04-25T06:15:50;101208.09;;;16.09;86.82
61528;BME280;47395;42.032;-8.634;2023-04-25T06:17:51;101204.31;;;16.13;86.77
61528;BME280;47395;42.032;-8.634;2023-04-25T06:19:52;101206.66;;;16.17;86.49
61528;BME280;47395;42.032;-8.634;2023-04-25T06:21:53;101203.78;;;16.21;86.11
61528;BME280;47395;42.032;-8.634;2023-04-25T06:23:54;101208.91;;;16.24;86.01
61528;BME280;47395;42.032;-8.634;2023-04-25T06:25:57;101214.59;;;16.32;85.59
61528;BME280;47395;42.032;-8.634;2023-04-25T06:28:00;101217.69;;;16.39;85.34
61528;BME280;47395;42.032;-8.634;2023-04-25T06:30:01;101220.56;;;16.36;84.62
61528;BME280;47395;42.032;-8.634;2023-04-25T06:32:03;101220.25;;;16.40;84.64
61528;BME280;47395;42.032;-8.634;2023-04-25T06:34:04;101222.59;;;16.45;84.62
61528;BME280;47395;42.032;-8.634;2023-04-25T06:36:09;101223.56;;;16.44;84.05
61528;BME280;47395;42.032;-8.634;2023-04-25T06:38:11;101225.81;;;16.50;83.91
61528;BME280;47395;42.032;-8.634;2023-04-25T06:40:14;101228.72;;;16.60;83.63
61528;BME280;47395;42.032;-8.634;2023-04-25T06:42:15;101242.47;;;16.67;83.16
61528;BME280;47395;42.032;-8.634;2023-04-25T06:44:39;101218.84;;;16.75;82.90
61528;BME280;47395;42.032;-8.634;2023-04-25T06:46:42;101218.75;;;16.77;82.25
61528;BME280;47395;42.032;-8.634;2023-04-25T06:48:43;101226.31;;;16.70;82.26
61528;BME280;47395;42.032;-8.634;2023-04-25T06:50:45;101236.41;;;16.78;82.53
61528;BME280;47395;42.032;-8.634;2023-04-25T06:52:46;101241.47;;;16.95;81.07
61528;BME280;47395;42.032;-8.634;2023-04-25T06:54:47;101248.44;;;17.24;80.52
61528;BME280;47395;42.032;-8.634;2023-04-25T06:56:59;101244.06;;;17.62;79.72
61528;BME280;47395;42.032;-8.634;2023-04-25T06:59:02;101249.94;;;18.66;76.60
61528;BME280;47395;42.032;-8.634;2023-04-25T07:01:14;101249.91;;;20.07;70.45
61528;BME280;47395;42.032;-8.634;2023-04-25T07:03:15;101244.78;;;21.23;66.44
61528;BME280;47395;42.032;-8.634;2023-04-25T07:05:16;101247.88;;;21.50;63.31
61528;BME280;47395;42.032;-8.634;2023-04-25T07:07:17;101251.38;;;21.19;63.87
61528;BME280;47395;42.032;-8.634;2023-04-25T07:09:30;101254.63;;;20.80;65.81
61528;BME280;47395;42.032;-8.634;2023-04-25T07:11:34;101251.19;;;20.57;66.43
61528;BME280;47395;42.032;-8.634;2023-04-25T07:13:35;101253.22;;;20.65;65.80
61528;BME280;47395;42.032;-8.634;2023-04-25T07:15:36;101259.22;;;20.57;65.93
61528;BME280;47395;42.032;-8.634;2023-04-25T07:17:38;101255.09;;;20.53;66.67
61528;BME280;47395;42.032;-8.634;2023-04-25T07:19:39;101262.22;;;20.42;67.32
61528;BME280;47395;42.032;-8.634;2023-04-25T07:21:41;101259.72;;;20.18;68.02
61528;BME280;47395;42.032;-8.634;2023-04-25T07:23:42;101270.88;;;20.34;68.10
61528;BME280;47395;42.032;-8.634;2023-04-25T07:25:49;101266.25;;;20.69;66.81
61528;BME280;47395;42.032;-8.634;2023-04-25T07:27:54;101272.84;;;20.98;66.26
61528;BME280;47395;42.032;-8.634;2023-04-25T07:29:56;101263.16;;;21.28;65.18
61528;BME280;47395;42.032;-8.634;2023-04-25T07:31:58;101278.25;;;21.29;64.95
61528;BME280;47395;42.032;-8.634;2023-04-25T07:33:59;101287.34;;;20.95;65.32
61528;BME280;47395;42.032;-8.634;2023-04-25T07:36:00;101280.66;;;20.78;66.07
61528;BME280;47395;42.032;-8.634;2023-04-25T07:38:02;101276.41;;;20.87;66.52
61528;BME280;47395;42.032;-8.634;2023-04-25T07:40:04;101275.72;;;21.06;65.45
61528;BME280;47395;42.032;-8.634;2023-04-25T07:42:06;101284.50;;;21.39;61.69
61528;BME280;47395;42.032;-8.634;2023-04-25T07:44:09;101277.09;;;21.53;60.78
61528;BME280;47395;42.032;-8.634;2023-04-25T07:46:10;101274.84;;;21.48;60.69
61528;BME280;47395;42.032;-8.634;2023-04-25T07:48:17;101280.41;;;21.14;62.41
61528;BME280;47395;42.032;-8.634;2023-04-25T07:50:20;101280.44;;;20.81;64.40
61528;BME280;47395;42.032;-8.634;2023-04-25T07:52:21;101278.31;;;20.64;64.79
61528;BME280;47395;42.032;-8.634;2023-04-25T07:54:28;101276.97;;;20.58;64.05
61528;BME280;47395;42.032;-8.634;2023-04-25T07:56:35;101279.75;;;20.35;64.15
61528;BME280;47395;42.032;-8.634;2023-04-25T07:58:36;101275.06;;;20.48;64.22
61528;BME280;47395;42.032;-8.634;2023-04-25T08:00:39;101289.78;;;20.54;63.88
61528;BME280;47395;42.032;-8.634;2023-04-25T08:03:00;101275.97;;;20.70;64.02
61528;BME280;47395;42.032;-8.634;2023-04-25T08:05:01;101278.91;;;20.67;64.71
61528;BME280;47395;42.032;-8.634;2023-04-25T08:07:02;101275.72;;;20.73;63.91
61528;BME280;47395;42.032;-8.634;2023-04-25T08:09:09;101275.50;;;20.65;64.99
61528;BME280;47395;42.032;-8.634;2023-04-25T08:11:13;101277.09;;;20.56;64.85
61528;BME280;47395;42.032;-8.634;2023-04-25T08:13:15;101285.22;;;20.66;65.89
61528;BME280;47395;42.032;-8.634;2023-04-25T08:15:16;101272.97;;;20.64;65.35
61528;BME280;47395;42.032;-8.634;2023-04-25T08:17:17;101278.63;;;20.49;66.29
61528;BME280;47395;42.032;-8.634;2023-04-25T08:19:19;101275.63;;;20.64;65.61
61528;BME280;47395;42.032;-8.634;2023-04-25T08:21:21;101276.31;;;20.77;65.38
61528;BME280;47395;42.032;-8.634;2023-04-25T08:23:22;101275.53;;;20.86;64.02
61528;BME280;47395;42.032;-8.634;2023-04-25T08:25:33;101269.91;;;21.01;62.30
61528;BME280;47395;42.032;-8.634;2023-04-25T08:27:34;101275.94;;;21.46;60.66
61528;BME280;47395;42.032;-8.634;2023-04-25T08:29:35;101274.34;;;21.64;60.19
61528;BME280;47395;42.032;-8.634;2023-04-25T08:31:37;101279.25;;;21.90;57.40
61528;BME280;47395;42.032;-8.634;2023-04-25T08:33:39;101278.47;;;22.10;57.92
61528;BME280;47395;42.032;-8.634;2023-04-25T08:36:09;101273.63;;;22.03;58.08
61528;BME280;47395;42.032;-8.634;2023-04-25T08:38:11;101279.78;;;21.84;59.14
61528;BME280;47395;42.032;-8.634;2023-04-25T08:40:14;101276.16;;;21.85;58.69
61528;BME280;47395;42.032;-8.634;2023-04-25T08:42:34;101272.28;;;21.47;59.10
61528;BME280;47395;42.032;-8.634;2023-04-25T08:44:38;101273.00;;;21.28;60.53
61528;BME280;47395;42.032;-8.634;2023-04-25T08:46:40;101268.66;;;21.26;60.76
61528;BME280;47395;42.032;-8.634;2023-04-25T08:49:00;101273.66;;;21.41;60.22
61528;BME280;47395;42.032;-8.634;2023-04-25T08:51:02;101273.34;;;21.34;60.01
61528;BME280;47395;42.032;-8.634;2023-04-25T08:53:09;101269.38;;;21.07;60.79
61528;BME280;47395;42.032;-8.634;2023-04-25T08:55:12;101259.00;;;20.93;61.37
61528;BME280;47395;42.032;-8.634;2023-04-25T08:57:16;101259.56;;;21.39;61.56
61528;BME280;47395;42.032;-8.634;2023-04-25T08:59:18;101266.06;;;21.46;60.64
61528;BME280;47395;42.032;-8.634;2023-04-25T09:01:20;101258.31;;;21.43;60.42
61528;BME280;47395;42.032;-8.634;2023-04-25T09:03:27;101256.56;;;21.42;60.62
61528;BME280;47395;42.032;-8.634;2023-04-25T09:05:28;101250.50;;;21.71;60.04
61528;BME280;47395;42.032;-8.634;2023-04-25T09:07:30;101254.78;;;21.74;59.47
61528;BME280;47395;42.032;-8.634;2023-04-25T09:09:31;101256.44;;;22.16;60.02
61528;BME280;47395;42.032;-8.634;2023-04-25T09:11:33;101244.91;;;22.45;58.23
61528;BME280;47395;42.032;-8.634;2023-04-25T09:13:36;101252.13;;;22.74;57.68
61528;BME280;47395;42.032;-8.634;2023-04-25T09:15:59;101254.63;;;22.95;58.28
61528;BME280;47395;42.032;-8.634;2023-04-25T09:18:26;101254.25;;;22.61;55.63
61528;BME280;47395;42.032;-8.634;2023-04-25T09:20:28;101262.44;;;22.69;55.75
61528;BME280;47395;42.032;-8.634;2023-04-25T09:22:29;101263.72;;;22.75;58.46
61528;BME280;47395;42.032;-8.634;2023-04-25T09:24:35;101270.66;;;22.77;59.24
61528;BME280;47395;42.032;-8.634;2023-04-25T09:26:38;101276.44;;;22.82;61.13
61528;BME280;47395;42.032;-8.634;2023-04-25T09:28:39;101273.19;;;22.69;60.19
61528;BME280;47395;42.032;-8.634;2023-04-25T09:30:41;101276.88;;;22.68;60.11
61528;BME280;47395;42.032;-8.634;2023-04-25T09:33:07;101288.47;;;22.59;59.48
61528;BME280;47395;42.032;-8.634;2023-04-25T09:35:10;101288.09;;;22.32;59.67
61528;BME280;47395;42.032;-8.634;2023-04-25T09:37:12;101296.59;;;22.27;58.97
61528;BME280;47395;42.032;-8.634;2023-04-25T09:39:33;101292.84;;;22.09;60.39
61528;BME280;47395;42.032;-8.634;2023-04-25T09:41:42;101300.53;;;22.33;60.13
61528;BME280;47395;42.032;-8.634;2023-04-25T09:43:45;101297.47;;;22.48;59.77
61528;BME280;47395;42.032;-8.634;2023-04-25T09:45:47;101304.00;;;22.65;59.22
61528;BME280;47395;42.032;-8.634;2023-04-25T09:47:50;101302.59;;;22.90;58.25
61528;BME280;47395;42.032;-8.634;2023-04-25T09:49:58;101306.22;;;23.09;57.23
61528;BME280;47395;42.032;-8.634;2023-04-25T09:51:59;101294.06;;;23.05;58.68
61528;BME280;47395;42.032;-8.634;2023-04-25T09:54:06;101290.63;;;23.52;55.68
61528;BME280;47395;42.032;-8.634;2023-04-25T09:56:14;101292.34;;;23.43;55.87
61528;BME280;47395;42.032;-8.634;2023-04-25T09:58:16;101280.56;;;23.54;55.27
61528;BME280;47395;42.032;-8.634;2023-04-25T10:00:17;101283.31;;;23.05;54.88
61528;BME280;47395;42.032;-8.634;2023-04-25T10:02:26;101265.09;;;23.18;54.06
61528;BME280;47395;42.032;-8.634;2023-04-25T10:04:34;101260.03;;;23.81;53.51
61528;BME280;47395;42.032;-8.634;2023-04-25T10:06:43;101260.19;;;24.08;51.17
61528;BME280;47395;42.032;-8.634;2023-04-25T10:08:45;101271.00;;;23.98;50.22
61528;BME280;47395;42.032;-8.634;2023-04-25T10:10:50;101282.41;;;24.56;47.85
61528;BME280;47395;42.032;-8.634;2023-04-25T10:12:51;101283.19;;;23.74;50.75
61528;BME280;47395;42.032;-8.634;2023-04-25T10:14:54;101293.72;;;23.85;51.18
61528;BME280;47395;42.032;-8.634;2023-04-25T10:16:55;101294.66;;;23.08;52.08
61528;BME280;47395;42.032;-8.634;2023-04-25T10:18:58;101298.50;;;22.66;53.33
61528;BME280;47395;42.032;-8.634;2023-04-25T10:21:04;101294.81;;;22.77;52.87
61528;BME280;47395;42.032;-8.634;2023-04-25T10:23:13;101291.53;;;22.54;53.70
61528;BME280;47395;42.032;-8.634;2023-04-25T10:25:17;101293.94;;;22.47;54.56
61528;BME280;47395;42.032;-8.634;2023-04-25T10:27:18;101285.56;;;22.30;55.33
61528;BME280;47395;42.032;-8.634;2023-04-25T10:29:24;101286.63;;;22.79;54.26
61528;BME280;47395;42.032;-8.634;2023-04-25T10:31:25;101283.34;;;22.85;53.51
61528;BME280;47395;42.032;-8.634;2023-04-25T10:33:42;101268.38;;;22.92;52.96
61528;BME280;47395;42.032;-8.634;2023-04-25T10:35:44;101266.09;;;24.21;49.79
61528;BME280;47395;42.032;-8.634;2023-04-25T10:38:09;101272.75;;;25.61;47.34
61528;BME280;47395;42.032;-8.634;2023-04-25T10:40:11;101283.81;;;25.85;45.46
61528;BME280;47395;42.032;-8.634;2023-04-25T10:42:12;101270.03;;;26.04;45.42
61528;BME280;47395;42.032;-8.634;2023-04-25T10:44:14;101264.25;;;26.51;43.71
61528;BME280;47395;42.032;-8.634;2023-04-25T10:46:26;101269.47;;;26.77;44.29
61528;BME280;47395;42.032;-8.634;2023-04-25T10:48:29;101263.22;;;27.18;44.24